sensor_id;sensor_type;location;lat;lon;timestamp;P1;durP1;ratioP1;P2;durP2;ratioP2
79526;SDS011;68974;47.754;-3.364;2024-03-02T00:02:01;7.30;;;1.10;;
79526;SDS011;68974;47.754;-3.364;2024-03-02T00:04:26;14.45;;;1.75;;
79526;SDS011;68974;47.754;-3.364;2024-03-02T00:06:52;5.80;;;1.02;;
79526;SDS011;68974;47.754;-3.364;2024-03-02T00:11:45;10.93;;;1.83;;
79526;SDS011;68974;47.754;-3.364;2024-03-02T00:14:10;9.07;;;1.02;;
79526;SDS011;68974;47.754;-3.364;2024-03-02T00:16:36;7.97;;;1.50;;
79526;SDS011;68974;47.754;-3.364;2024-03-02T00:19:02;6.75;;;1.02;;
79526;SDS011;68974;47.754;-3.364;2024-03-02T00:21:31;6.65;;;1.33;;
79526;SDS011;68974;47.754;-3.364;2024-03-02T00:23:58;11.13;;;1.48;;
79526;SDS011;68974;47.754;-3.364;2024-03-02T00:26:25;8.38;;;1.60;;
79526;SDS011;68974;47.754;-3.364;2024-03-02T00:28:51;13.05;;;1.58;;
79526;SDS011;68974;47.754;-3.364;2024-03-02T00:31:20;9.00;;;1.38;;
79526;SDS011;68974;47.754;-3.364;2024-03-02T00:33:46;7.57;;;1.30;;
79526;SDS011;68974;47.754;-3.364;2024-03-02T00:36:14;6.20;;;1.35;;
79526;SDS011;68974;47.754;-3.364;2024-03-02T00:38:52;14.75;;;1.73;;
79526;SDS011;68974;47.754;-3.364;2024-03-02T00:41:24;5.53;;;2.08;;
79526;SDS011;68974;47.754;-3.364;2024-03-02T00:43:58;5.65;;;1.40;;
79526;SDS011;68974;47.754;-3.364;2024-03-02T00:46:34;5.90;;;1.45;;
79526;SDS011;68974;47.754;-3.364;2024-03-02T00:49:21;13.82;;;1.75;;
79526;SDS011;68974;47.754;-3.364;2024-03-02T00:51:48;8.10;;;2.00;;
79526;SDS011;68974;47.754;-3.364;2024-03-02T00:54:15;10.57;;;1.63;;
79526;SDS011;68974;47.754;-3.364;2024-03-02T00:56:44;12.57;;;1.42;;
79526;SDS011;68974;47.754;-3.364;2024-03-02T00:59:10;14.32;;;2.33;;
79526;SDS011;68974;47.754;-3.364;2024-03-02T01:01:36;8.68;;;1.80;;
79526;SDS011;68974;47.754;-3.364;2024-03-02T01:04:01;18.30;;;2.38;;
79526;SDS011;68974;47.754;-3.364;2024-03-02T01:06:27;6.50;;;1.13;;
79526;SDS011;68974;47.754;-3.364;2024-03-02T01:08:52;9.52;;;1.50;;
79526;SDS011;68974;47.754;-3.364;2024-03-02T01:11:18;6.78;;;1.13;;
79526;SDS011;68974;47.754;-3.364;2024-03-02T01:13:44;5.57;;;0.88;;
79526;SDS011;68974;47.754;-3.364;2024-03-02T01:16:11;9.95;;;1.05;;
79526;SDS011;68974;47.754;-3.364;2024-03-02T01:18:36;8.00;;;1.30;;
79526;SDS011;68974;47.754;-3.364;2024-03-02T01:21:02;10.85;;;1.25;;
79526;SDS011;68974;47.754;-3.364;2024-03-02T01:23:27;9.27;;;1.67;;
79526;SDS011;68974;47.754;-3.364;2024-03-02T01:25:53;9.25;;;1.95;;
79526;SDS011;68974;47.754;-3.364;2024-03-02T01:28:19;10.60;;;1.50;;
79526;SDS011;68974;47.754;-3.364;2024-03-02T01:30:45;11.10;;;1.15;;
79526;SDS011;68974;47.754;-3.364;2024-03-02T01:33:11;8.30;;;1.35;;
79526;SDS011;68974;47.754;-3.364;2024-03-02T01:35:37;4.57;;;1.30;;
79526;SDS011;68974;47.754;-3.364;2024-03-02T01:38:02;12.95;;;1.30;;
79526;SDS011;68974;47.754;-3.364;2024-03-02T01:40:28;7.80;;;1.00;;
79526;SDS011;68974;47.754;-3.364;2024-03-02T01:42:54;9.18;;;1.80;;
79526;SDS011;68974;47.754;-3.364;2024-03-02T01:45:20;7.45;;;1.48;;
79526;SDS011;68974;47.754;-3.364;2024-03-02T01:47:46;12.45;;;1.63;;
79526;SDS011;68974;47.754;-3.364;2024-03-02T01:50:12;13.60;;;1.20;;
79526;SDS011;68974;47.754;-3.364;2024-03-02T01:52:38;11.68;;;2.08;;
79526;SDS011;68974;47.754;-3.364;2024-03-02T01:55:04;14.05;;;1.48;;
79526;SDS011;68974;47.754;-3.364;2024-03-02T01:57:31;10.55;;;1.85;;
79526;SDS011;68974;47.754;-3.364;2024-03-02T01:59:57;15.45;;;3.08;;
79526;SDS011;68974;47.754;-3.364;2024-03-02T02:02:22;19.10;;;2.03;;
79526;SDS011;68974;47.754;-3.364;2024-03-02T02:04:48;8.27;;;2.05;;
79526;SDS011;68974;47.754;-3.364;2024-03-02T02:07:13;12.80;;;1.70;;
79526;SDS011;68974;47.754;-3.364;2024-03-02T02:09:40;12.65;;;2.33;;
79526;SDS011;68974;47.754;-3.364;2024-03-02T02:12:07;12.43;;;2.65;;
79526;SDS011;68974;47.754;-3.364;2024-03-02T02:14:33;11.45;;;1.60;;
79526;SDS011;68974;47.754;-3.364;2024-03-02T02:16:58;5.50;;;1.33;;
79526;SDS011;68974;47.754;-3.364;2024-03-02T02:19:24;12.02;;;1.60;;
79526;SDS011;68974;47.754;-3.364;2024-03-02T02:21:50;8.38;;;2.08;;
79526;SDS011;68974;47.754;-3.364;2024-03-02T02:24:15;10.75;;;1.05;;
79526;SDS011;68974;47.754;-3.364;2024-03-02T02:26:41;5.13;;;0.80;;
79526;SDS011;68974;47.754;-3.364;2024-03-02T02:29:06;6.50;;;0.85;;
79526;SDS011;68974;47.754;-3.364;2024-03-02T02:31:41;6.70;;;1.58;;
79526;SDS011;68974;47.754;-3.364;2024-03-02T02:34:07;8.68;;;1.40;;
79526;SDS011;68974;47.754;-3.364;2024-03-02T02:36:34;9.80;;;1.58;;
79526;SDS011;68974;47.754;-3.364;2024-03-02T02:39:04;10.10;;;1.52;;
79526;SDS011;68974;47.754;-3.364;2024-03-02T02:41:31;9.25;;;1.90;;
79526;SDS011;68974;47.754;-3.364;2024-03-02T02:43:57;8.27;;;1.52;;
79526;SDS011;68974;47.754;-3.364;2024-03-02T02:46:23;13.15;;;1.73;;
79526;SDS011;68974;47.754;-3.364;2024-03-02T02:48:48;8.07;;;0.82;;
79526;SDS011;68974;47.754;-3.364;2024-03-02T02:51:14;6.55;;;0.80;;
79526;SDS011;68974;47.754;-3.364;2024-03-02T02:53:39;13.77;;;1.63;;
79526;SDS011;68974;47.754;-3.364;2024-03-02T02:56:08;2.83;;;0.95;;
79526;SDS011;68974;47.754;-3.364;2024-03-02T02:58:34;4.20;;;0.68;;
79526;SDS011;68974;47.754;-3.364;2024-03-02T03:01:00;1.75;;;0.50;;
79526;SDS011;68974;47.754;-3.364;2024-03-02T03:03:26;4.88;;;0.65;;
79526;SDS011;68974;47.754;-3.364;2024-03-02T03:05:51;7.90;;;1.52;;
79526;SDS011;68974;47.754;-3.364;2024-03-02T03:08:17;2.85;;;0.80;;
79526;SDS011;68974;47.754;-3.364;2024-03-02T03:10:42;4.65;;;0.75;;
79526;SDS011;68974;47.754;-3.364;2024-03-02T03:13:08;4.50;;;0.63;;
79526;SDS011;68974;47.754;-3.364;2024-03-02T03:15:36;6.95;;;1.25;;
79526;SDS011;68974;47.754;-3.364;2024-03-02T03:18:02;4.70;;;0.90;;
79526;SDS011;68974;47.754;-3.364;2024-03-02T03:20:29;4.25;;;0.82;;
79526;SDS011;68974;47.754;-3.364;2024-03-02T03:22:55;2.35;;;0.63;;
79526;SDS011;68974;47.754;-3.364;2024-03-02T03:25:20;5.22;;;1.00;;
79526;SDS011;68974;47.754;-3.364;2024-03-02T03:27:46;3.65;;;0.60;;
79526;SDS011;68974;47.754;-3.364;2024-03-02T03:30:12;3.55;;;0.55;;
79526;SDS011;68974;47.754;-3.364;2024-03-02T03:32:37;3.65;;;0.60;;
79526;SDS011;68974;47.754;-3.364;2024-03-02T03:35:03;4.78;;;0.60;;
79526;SDS011;68974;47.754;-3.364;2024-03-02T03:37:29;3.67;;;1.15;;
79526;SDS011;68974;47.754;-3.364;2024-03-02T03:39:58;2.15;;;0.50;;
79526;SDS011;68974;47.754;-3.364;2024-03-02T03:42:24;2.60;;;0.47;;
79526;SDS011;68974;47.754;-3.364;2024-03-02T03:44:49;2.65;;;0.70;;
79526;SDS011;68974;47.754;-3.364;2024-03-02T03:47:15;3.38;;;0.68;;
79526;SDS011;68974;47.754;-3.364;2024-03-02T03:49:40;3.33;;;0.50;;
79526;SDS011;68974;47.754;-3.364;2024-03-02T03:52:06;3.38;;;1.25;;
79526;SDS011;68974;47.754;-3.364;2024-03-02T03:54:31;1.00;;;0.43;;
79526;SDS011;68974;47.754;-3.364;2024-03-02T03:56:57;4.25;;;0.73;;
79526;SDS011;68974;47.754;-3.364;2024-03-02T03:59:22;4.68;;;0.60;;
79526;SDS011;68974;47.754;-3.364;2024-03-02T04:01:48;2.25;;;0.60;;
79526;SDS011;68974;47.754;-3.364;2024-03-02T04:04:14;2.53;;;0.70;;
79526;SDS011;68974;47.754;-3.364;2024-03-02T04:06:39;3.33;;;0.40;;
79526;SDS011;68974;47.754;-3.364;2024-03-02T04:09:05;1.90;;;0.82;;
79526;SDS011;68974;47.754;-3.364;2024-03-02T04:11:31;3.83;;;0.70;;
79526;SDS011;68974;47.754;-3.364;2024-03-02T04:13:56;3.10;;;0.85;;
79526;SDS011;68974;47.754;-3.364;2024-03-02T04:16:22;2.67;;;0.50;;
79526;SDS011;68974;47.754;-3.364;2024-03-02T04:18:48;2.95;;;0.60;;
79526;SDS011;68974;47.754;-3.364;2024-03-02T04:21:13;5.70;;;0.70;;
79526;SDS011;68974;47.754;-3.364;2024-03-02T04:23:39;6.30;;;0.90;;
79526;SDS011;68974;47.754;-3.364;2024-03-02T04:26:04;3.50;;;0.75;;
79526;SDS011;68974;47.754;-3.364;2024-03-02T04:28:30;6.28;;;0.93;;
79526;SDS011;68974;47.754;-3.364;2024-03-02T04:30:55;7.43;;;0.80;;
79526;SDS011;68974;47.754;-3.364;2024-03-02T04:33:20;8.57;;;0.90;;
79526;SDS011;68974;47.754;-3.364;2024-03-02T04:35:46;3.63;;;0.85;;
79526;SDS011;68974;47.754;-3.364;2024-03-02T04:38:11;4.15;;;0.88;;
79526;SDS011;68974;47.754;-3.364;2024-03-02T04:40:37;4.38;;;1.02;;
79526;SDS011;68974;47.754;-3.364;2024-03-02T04:43:03;3.90;;;0.80;;
79526;SDS011;68974;47.754;-3.364;2024-03-02T04:45:28;4.00;;;1.00;;
79526;SDS011;68974;47.754;-3.364;2024-03-02T04:47:54;3.60;;;0.68;;
79526;SDS011;68974;47.754;-3.364;2024-03-02T04:50:20;2.80;;;0.75;;
79526;SDS011;68974;47.754;-3.364;2024-03-02T04:52:45;4.85;;;0.90;;
79526;SDS011;68974;47.754;-3.364;2024-03-02T04:55:11;2.33;;;0.93;;
79526;SDS011;68974;47.754;-3.364;2024-03-02T04:58:00;4.43;;;1.05;;
79526;SDS011;68974;47.754;-3.364;2024-03-02T05:00:25;3.15;;;0.80;;
79526;SDS011;68974;47.754;-3.364;2024-03-02T05:02:51;5.72;;;1.10;;
79526;SDS011;68974;47.754;-3.364;2024-03-02T05:05:16;2.28;;;0.88;;
79526;SDS011;68974;47.754;-3.364;2024-03-02T05:07:42;5.72;;;1.15;;
79526;SDS011;68974;47.754;-3.364;2024-03-02T05:10:09;7.30;;;1.30;;
79526;SDS011;68974;47.754;-3.364;2024-03-02T05:12:34;4.07;;;0.90;;
79526;SDS011;68974;47.754;-3.364;2024-03-02T05:15:20;6.40;;;1.10;;
79526;SDS011;68974;47.754;-3.364;2024-03-02T05:17:46;5.70;;;1.10;;
79526;SDS011;68974;47.754;-3.364;2024-03-02T05:20:12;5.30;;;1.02;;
79526;SDS011;68974;47.754;-3.364;2024-03-02T05:22:37;3.78;;;0.80;;
79526;SDS011;68974;47.754;-3.364;2024-03-02T05:25:04;12.35;;;2.15;;
79526;SDS011;68974;47.754;-3.364;2024-03-02T05:27:30;3.47;;;1.08;;
79526;SDS011;68974;47.754;-3.364;2024-03-02T05:29:57;6.22;;;0.88;;
79526;SDS011;68974;47.754;-3.364;2024-03-02T05:32:23;6.45;;;0.93;;
79526;SDS011;68974;47.754;-3.364;2024-03-02T05:34:50;7.22;;;1.40;;
79526;SDS011;68974;47.754;-3.364;2024-03-02T05:37:16;5.13;;;1.08;;
79526;SDS011;68974;47.754;-3.364;2024-03-02T05:39:42;1.88;;;0.65;;
79526;SDS011;68974;47.754;-3.364;2024-03-02T05:42:08;4.35;;;0.85;;
79526;SDS011;68974;47.754;-3.364;2024-03-02T05:44:34;3.30;;;0.77;;
79526;SDS011;68974;47.754;-3.364;2024-03-02T05:47:00;2.75;;;1.05;;
79526;SDS011;68974;47.754;-3.364;2024-03-02T05:49:26;2.47;;;0.52;;
79526;SDS011;68974;47.754;-3.364;2024-03-02T05:51:51;1.75;;;0.47;;
79526;SDS011;68974;47.754;-3.364;2024-03-02T05:54:17;7.50;;;1.27;;
79526;SDS011;68974;47.754;-3.364;2024-03-02T05:56:42;2.40;;;0.60;;
79526;SDS011;68974;47.754;-3.364;2024-03-02T05:59:07;5.85;;;0.98;;
79526;SDS011;68974;47.754;-3.364;2024-03-02T06:01:39;4.30;;;0.90;;
79526;SDS011;68974;47.754;-3.364;2024-03-02T06:04:05;3.75;;;0.75;;
79526;SDS011;68974;47.754;-3.364;2024-03-02T06:06:32;1.17;;;0.43;;
79526;SDS011;68974;47.754;-3.364;2024-03-02T06:08:59;2.97;;;1.10;;
79526;SDS011;68974;47.754;-3.364;2024-03-02T06:11:25;2.75;;;0.77;;
79526;SDS011;68974;47.754;-3.364;2024-03-02T06:13:50;4.75;;;0.70;;
79526;SDS011;68974;47.754;-3.364;2024-03-02T06:16:16;3.00;;;1.02;;
79526;SDS011;68974;47.754;-3.364;2024-03-02T06:18:41;7.70;;;1.15;;
79526;SDS011;68974;47.754;-3.364;2024-03-02T06:21:07;7.10;;;0.88;;
79526;SDS011;68974;47.754;-3.364;2024-03-02T06:23:33;4.38;;;0.88;;
79526;SDS011;68974;47.754;-3.364;2024-03-02T06:25:59;4.25;;;1.02;;
79526;SDS011;68974;47.754;-3.364;2024-03-02T06:28:25;2.47;;;1.30;;
79526;SDS011;68974;47.754;-3.364;2024-03-02T06:30:51;6.60;;;1.63;;
79526;SDS011;68974;47.754;-3.364;2024-03-02T06:33:16;2.70;;;0.82;;
79526;SDS011;68974;47.754;-3.364;2024-03-02T06:35:42;5.63;;;1.50;;
79526;SDS011;68974;47.754;-3.364;2024-03-02T06:38:07;6.65;;;3.63;;
79526;SDS011;68974;47.754;-3.364;2024-03-02T06:40:33;5.50;;;1.40;;
79526;SDS011;68974;47.754;-3.364;2024-03-02T06:42:59;5.57;;;1.05;;
79526;SDS011;68974;47.754;-3.364;2024-03-02T06:45:24;3.50;;;0.70;;
79526;SDS011;68974;47.754;-3.364;2024-03-02T06:47:50;3.60;;;1.05;;
79526;SDS011;68974;47.754;-3.364;2024-03-02T06:50:15;5.13;;;1.40;;
79526;SDS011;68974;47.754;-3.364;2024-03-02T06:52:41;5.95;;;1.15;;
79526;SDS011;68974;47.754;-3.364;2024-03-02T06:55:07;4.20;;;1.55;;
79526;SDS011;68974;47.754;-3.364;2024-03-02T06:57:32;2.72;;;1.20;;
79526;SDS011;68974;47.754;-3.364;2024-03-02T06:59:58;5.07;;;0.85;;
79526;SDS011;68974;47.754;-3.364;2024-03-02T07:02:26;3.25;;;0.82;;
79526;SDS011;68974;47.754;-3.364;2024-03-02T07:04:53;2.10;;;0.70;;
79526;SDS011;68974;47.754;-3.364;2024-03-02T07:07:18;3.20;;;0.90;;
79526;SDS011;68974;47.754;-3.364;2024-03-02T07:09:44;4.90;;;0.60;;
79526;SDS011;68974;47.754;-3.364;2024-03-02T07:12:09;7.70;;;3.38;;
79526;SDS011;68974;47.754;-3.364;2024-03-02T07:14:35;5.20;;;1.90;;
79526;SDS011;68974;47.754;-3.364;2024-03-02T07:17:35;9.05;;;4.25;;
79526;SDS011;68974;47.754;-3.364;2024-03-02T07:20:02;9.52;;;3.55;;
79526;SDS011;68974;47.754;-3.364;2024-03-02T07:22:28;5.40;;;1.75;;
79526;SDS011;68974;47.754;-3.364;2024-03-02T07:24:54;5.70;;;1.42;;
79526;SDS011;68974;47.754;-3.364;2024-03-02T07:27:19;4.13;;;0.93;;
79526;SDS011;68974;47.754;-3.364;2024-03-02T07:29:45;5.90;;;1.33;;
79526;SDS011;68974;47.754;-3.364;2024-03-02T07:32:10;6.75;;;1.33;;
79526;SDS011;68974;47.754;-3.364;2024-03-02T07:34:36;3.22;;;1.08;;
79526;SDS011;68974;47.754;-3.364;2024-03-02T07:37:02;4.22;;;1.27;;
79526;SDS011;68974;47.754;-3.364;2024-03-02T07:39:28;5.82;;;1.50;;
79526;SDS011;68974;47.754;-3.364;2024-03-02T07:41:55;4.47;;;1.25;;
79526;SDS011;68974;47.754;-3.364;2024-03-02T07:44:20;5.05;;;1.15;;
79526;SDS011;68974;47.754;-3.364;2024-03-02T07:46:46;7.97;;;1.60;;
79526;SDS011;68974;47.754;-3.364;2024-03-02T07:49:15;3.00;;;1.17;;
79526;SDS011;68974;47.754;-3.364;2024-03-02T07:51:40;3.30;;;0.98;;
79526;SDS011;68974;47.754;-3.364;2024-03-02T07:54:07;1.80;;;0.73;;
79526;SDS011;68974;47.754;-3.364;2024-03-02T07:56:32;8.18;;;1.65;;
79526;SDS011;68974;47.754;-3.364;2024-03-02T07:58:58;3.70;;;1.10;;
79526;SDS011;68974;47.754;-3.364;2024-03-02T08:01:29;3.92;;;1.98;;
79526;SDS011;68974;47.754;-3.364;2024-03-02T08:03:59;4.75;;;1.30;;
79526;SDS011;68974;47.754;-3.364;2024-03-02T08:06:26;6.97;;;1.52;;
79526;SDS011;68974;47.754;-3.364;2024-03-02T08:08:56;7.70;;;1.42;;
79526;SDS011;68974;47.754;-3.364;2024-03-02T08:11:22;6.53;;;2.30;;
79526;SDS011;68974;47.754;-3.364;2024-03-02T08:13:48;5.28;;;1.70;;
79526;SDS011;68974;47.754;-3.364;2024-03-02T08:16:17;5.80;;;2.10;;
79526;SDS011;68974;47.754;-3.364;2024-03-02T08:18:47;7.20;;;2.40;;
79526;SDS011;68974;47.754;-3.364;2024-03-02T08:21:13;2.90;;;1.73;;
79526;SDS011;68974;47.754;-3.364;2024-03-02T08:23:39;4.93;;;2.13;;
79526;SDS011;68974;47.754;-3.364;2024-03-02T08:26:07;10.68;;;2.60;;
79526;SDS011;68974;47.754;-3.364;2024-03-02T08:28:32;10.27;;;3.08;;
79526;SDS011;68974;47.754;-3.364;2024-03-02T08:30:58;11.07;;;5.38;;
79526;SDS011;68974;47.754;-3.364;2024-03-02T08:33:23;15.13;;;3.78;;
79526;SDS011;68974;47.754;-3.364;2024-03-02T08:35:49;7.70;;;2.15;;
79526;SDS011;68974;47.754;-3.364;2024-03-02T08:38:14;8.35;;;2.08;;
79526;SDS011;68974;47.754;-3.364;2024-03-02T08:40:40;12.63;;;2.70;;
79526;SDS011;68974;47.754;-3.364;2024-03-02T08:43:06;11.05;;;1.90;;
79526;SDS011;68974;47.754;-3.364;2024-03-02T08:45:31;9.02;;;2.58;;
79526;SDS011;68974;47.754;-3.364;2024-03-02T08:47:57;8.00;;;2.33;;
79526;SDS011;68974;47.754;-3.364;2024-03-02T08:50:22;8.07;;;1.48;;
79526;SDS011;68974;47.754;-3.364;2024-03-02T08:52:48;10.00;;;2.28;;
79526;SDS011;68974;47.754;-3.364;2024-03-02T08:55:13;5.22;;;1.42;;
79526;SDS011;68974;47.754;-3.364;2024-03-02T08:57:40;8.20;;;1.67;;
79526;SDS011;68974;47.754;-3.364;2024-03-02T09:00:07;5.97;;;1.17;;
79526;SDS011;68974;47.754;-3.364;2024-03-02T09:02:33;5.13;;;1.10;;
79526;SDS011;68974;47.754;-3.364;2024-03-02T09:04:59;4.93;;;1.10;;
79526;SDS011;68974;47.754;-3.364;2024-03-02T09:07:24;7.82;;;2.03;;
79526;SDS011;68974;47.754;-3.364;2024-03-02T09:09:50;4.20;;;1.38;;
79526;SDS011;68974;47.754;-3.364;2024-03-02T09:12:15;4.97;;;1.58;;
79526;SDS011;68974;47.754;-3.364;2024-03-02T09:14:41;6.20;;;0.98;;
79526;SDS011;68974;47.754;-3.364;2024-03-02T09:17:06;5.38;;;1.85;;
79526;SDS011;68974;47.754;-3.364;2024-03-02T09:19:33;3.40;;;1.00;;
79526;SDS011;68974;47.754;-3.364;2024-03-02T09:21:58;4.47;;;1.42;;
79526;SDS011;68974;47.754;-3.364;2024-03-02T09:24:24;4.85;;;1.50;;
79526;SDS011;68974;47.754;-3.364;2024-03-02T09:26:49;5.53;;;1.90;;
79526;SDS011;68974;47.754;-3.364;2024-03-02T09:29:15;5.63;;;1.17;;
79526;SDS011;68974;47.754;-3.364;2024-03-02T09:31:41;7.88;;;1.48;;
79526;SDS011;68974;47.754;-3.364;2024-03-02T09:34:07;5.55;;;1.17;;
79526;SDS011;68974;47.754;-3.364;2024-03-02T09:36:32;9.90;;;1.92;;
79526;SDS011;68974;47.754;-3.364;2024-03-02T09:38:58;8.30;;;1.88;;
79526;SDS011;68974;47.754;-3.364;2024-03-02T09:41:23;5.13;;;1.10;;
79526;SDS011;68974;47.754;-3.364;2024-03-02T09:43:49;4.80;;;1.05;;
79526;SDS011;68974;47.754;-3.364;2024-03-02T09:46:15;8.10;;;1.27;;
79526;SDS011;68974;47.754;-3.364;2024-03-02T09:48:41;4.38;;;1.30;;
79526;SDS011;68974;47.754;-3.364;2024-03-02T09:51:09;8.10;;;2.45;;
79526;SDS011;68974;47.754;-3.364;2024-03-02T09:53:36;5.60;;;1.02;;
79526;SDS011;68974;47.754;-3.364;2024-03-02T09:56:02;3.80;;;1.27;;
79526;SDS011;68974;47.754;-3.364;2024-03-02T09:58:28;2.78;;;0.90;;
79526;SDS011;68974;47.754;-3.364;2024-03-02T10:00:54;6.28;;;1.30;;
79526;SDS011;68974;47.754;-3.364;2024-03-02T10:03:20;4.38;;;1.13;;
79526;SDS011;68974;47.754;-3.364;2024-03-02T10:05:48;3.58;;;1.00;;
79526;SDS011;68974;47.754;-3.364;2024-03-02T10:08:13;3.90;;;1.20;;
79526;SDS011;68974;47.754;-3.364;2024-03-02T10:10:39;2.85;;;1.10;;
79526;SDS011;68974;47.754;-3.364;2024-03-02T10:13:07;3.28;;;1.10;;
79526;SDS011;68974;47.754;-3.364;2024-03-02T10:15:34;4.05;;;1.20;;
79526;SDS011;68974;47.754;-3.364;2024-03-02T10:18:00;3.67;;;1.08;;
79526;SDS011;68974;47.754;-3.364;2024-03-02T10:20:26;3.08;;;1.00;;
79526;SDS011;68974;47.754;-3.364;2024-03-02T10:22:54;3.28;;;0.80;;
79526;SDS011;68974;47.754;-3.364;2024-03-02T10:25:30;3.30;;;0.98;;
79526;SDS011;68974;47.754;-3.364;2024-03-02T10:27:57;3.22;;;0.95;;
79526;SDS011;68974;47.754;-3.364;2024-03-02T10:30:26;3.00;;;0.90;;
79526;SDS011;68974;47.754;-3.364;2024-03-02T10:32:53;4.03;;;0.80;;
79526;SDS011;68974;47.754;-3.364;2024-03-02T10:35:20;2.97;;;0.90;;
79526;SDS011;68974;47.754;-3.364;2024-03-02T10:40:13;2.83;;;1.20;;
79526;SDS011;68974;47.754;-3.364;2024-03-02T10:42:39;2.63;;;0.70;;
79526;SDS011;68974;47.754;-3.364;2024-03-02T10:45:07;1.83;;;0.70;;
79526;SDS011;68974;47.754;-3.364;2024-03-02T10:47:36;3.35;;;1.63;;
79526;SDS011;68974;47.754;-3.364;2024-03-02T10:52:31;3.42;;;1.27;;
79526;SDS011;68974;47.754;-3.364;2024-03-02T10:54:56;2.25;;;0.88;;
79526;SDS011;68974;47.754;-3.364;2024-03-02T10:57:22;4.07;;;0.80;;
79526;SDS011;68974;47.754;-3.364;2024-03-02T10:59:53;1.70;;;0.70;;
79526;SDS011;68974;47.754;-3.364;2024-03-02T11:02:22;1.17;;;0.65;;
79526;SDS011;68974;47.754;-3.364;2024-03-02T11:07:16;3.08;;;1.00;;
79526;SDS011;68974;47.754;-3.364;2024-03-02T11:09:48;1.52;;;0.90;;
79526;SDS011;68974;47.754;-3.364;2024-03-02T11:12:19;1.95;;;0.90;;
79526;SDS011;68974;47.754;-3.364;2024-03-02T11:14:54;2.72;;;0.63;;
79526;SDS011;68974;47.754;-3.364;2024-03-02T11:17:21;4.35;;;1.85;;
79526;SDS011;68974;47.754;-3.364;2024-03-02T11:19:47;3.05;;;0.90;;
79526;SDS011;68974;47.754;-3.364;2024-03-02T11:22:13;2.60;;;1.00;;
79526;SDS011;68974;47.754;-3.364;2024-03-02T11:32:06;3.38;;;0.80;;
79526;SDS011;68974;47.754;-3.364;2024-03-02T11:34:42;2.28;;;0.70;;
79526;SDS011;68974;47.754;-3.364;2024-03-02T11:37:14;3.22;;;0.70;;
79526;SDS011;68974;47.754;-3.364;2024-03-02T11:39:41;1.65;;;0.60;;
79526;SDS011;68974;47.754;-3.364;2024-03-02T11:42:11;3.03;;;0.90;;
79526;SDS011;68974;47.754;-3.364;2024-03-02T11:44:47;3.88;;;0.95;;
79526;SDS011;68974;47.754;-3.364;2024-03-02T11:47:14;3.47;;;0.85;;
79526;SDS011;68974;47.754;-3.364;2024-03-02T11:52:07;2.78;;;0.80;;
79526;SDS011;68974;47.754;-3.364;2024-03-02T11:54:36;4.63;;;0.70;;
79526;SDS011;68974;47.754;-3.364;2024-03-02T11:57:06;2.33;;;0.93;;
79526;SDS011;68974;47.754;-3.364;2024-03-02T11:59:32;2.08;;;0.68;;
79526;SDS011;68974;47.754;-3.364;2024-03-02T12:01:58;2.97;;;1.33;;
79526;SDS011;68974;47.754;-3.364;2024-03-02T12:04:24;4.28;;;1.17;;
79526;SDS011;68974;47.754;-3.364;2024-03-02T12:07:00;4.65;;;2.05;;
79526;SDS011;68974;47.754;-3.364;2024-03-02T12:09:29;1.50;;;0.75;;
79526;SDS011;68974;47.754;-3.364;2024-03-02T12:12:08;8.65;;;0.95;;
79526;SDS011;68974;47.754;-3.364;2024-03-02T12:14:38;3.25;;;1.10;;
79526;SDS011;68974;47.754;-3.364;2024-03-02T12:17:04;2.83;;;0.60;;
79526;SDS011;68974;47.754;-3.364;2024-03-02T12:19:30;1.55;;;0.77;;
79526;SDS011;68974;47.754;-3.364;2024-03-02T12:21:57;1.85;;;0.70;;
79526;SDS011;68974;47.754;-3.364;2024-03-02T12:24:23;1.50;;;0.50;;
79526;SDS011;68974;47.754;-3.364;2024-03-02T12:26:49;1.45;;;0.50;;
79526;SDS011;68974;47.754;-3.364;2024-03-02T12:29:16;1.15;;;0.32;;
79526;SDS011;68974;47.754;-3.364;2024-03-02T12:31:42;1.80;;;0.70;;
79526;SDS011;68974;47.754;-3.364;2024-03-02T12:34:11;2.50;;;0.70;;
79526;SDS011;68974;47.754;-3.364;2024-03-02T12:36:39;1.38;;;0.85;;
79526;SDS011;68974;47.754;-3.364;2024-03-02T12:39:06;1.50;;;0.60;;
79526;SDS011;68974;47.754;-3.364;2024-03-02T12:41:33;1.48;;;0.50;;
79526;SDS011;68974;47.754;-3.364;2024-03-02T12:44:01;2.95;;;0.80;;
79526;SDS011;68974;47.754;-3.364;2024-03-02T12:46:27;1.45;;;0.57;;
79526;SDS011;68974;47.754;-3.364;2024-03-02T12:48:52;3.63;;;0.60;;
79526;SDS011;68974;47.754;-3.364;2024-03-02T12:51:18;1.98;;;0.60;;
79526;SDS011;68974;47.754;-3.364;2024-03-02T12:53:44;2.10;;;0.65;;
79526;SDS011;68974;47.754;-3.364;2024-03-02T12:56:10;1.77;;;0.60;;
79526;SDS011;68974;47.754;-3.364;2024-03-02T12:58:39;2.40;;;0.60;;
79526;SDS011;68974;47.754;-3.364;2024-03-02T13:01:09;2.55;;;0.95;;
79526;SDS011;68974;47.754;-3.364;2024-03-02T13:03:38;1.15;;;0.50;;
79526;SDS011;68974;47.754;-3.364;2024-03-02T13:06:04;2.30;;;0.50;;
79526;SDS011;68974;47.754;-3.364;2024-03-02T13:08:31;2.83;;;0.80;;
79526;SDS011;68974;47.754;-3.364;2024-03-02T13:10:57;1.00;;;0.65;;
79526;SDS011;68974;47.754;-3.364;2024-03-02T13:13:23;3.08;;;0.70;;
79526;SDS011;68974;47.754;-3.364;2024-03-02T13:15:48;2.65;;;0.73;;
79526;SDS011;68974;47.754;-3.364;2024-03-02T13:18:14;1.55;;;0.60;;
79526;SDS011;68974;47.754;-3.364;2024-03-02T13:20:39;1.15;;;0.68;;
79526;SDS011;68974;47.754;-3.364;2024-03-02T13:23:05;0.90;;;0.55;;
79526;SDS011;68974;47.754;-3.364;2024-03-02T13:25:31;3.20;;;0.63;;
79526;SDS011;68974;47.754;-3.364;2024-03-02T13:27:57;1.63;;;0.60;;
79526;SDS011;68974;47.754;-3.364;2024-03-02T13:30:23;1.63;;;0.70;;
79526;SDS011;68974;47.754;-3.364;2024-03-02T13:32:48;2.55;;;0.77;;
79526;SDS011;68974;47.754;-3.364;2024-03-02T13:35:14;3.45;;;0.60;;
79526;SDS011;68974;47.754;-3.364;2024-03-02T13:37:39;3.03;;;0.70;;
79526;SDS011;68974;47.754;-3.364;2024-03-02T13:40:05;2.08;;;0.80;;
79526;SDS011;68974;47.754;-3.364;2024-03-02T13:42:31;1.85;;;0.43;;
79526;SDS011;68974;47.754;-3.364;2024-03-02T13:44:57;2.10;;;0.50;;
79526;SDS011;68974;47.754;-3.364;2024-03-02T13:47:22;2.25;;;0.60;;
79526;SDS011;68974;47.754;-3.364;2024-03-02T13:49:48;1.92;;;0.55;;
79526;SDS011;68974;47.754;-3.364;2024-03-02T13:52:14;1.48;;;0.50;;
79526;SDS011;68974;47.754;-3.364;2024-03-02T13:54:42;0.70;;;0.40;;
79526;SDS011;68974;47.754;-3.364;2024-03-02T13:57:10;1.77;;;0.50;;
79526;SDS011;68974;47.754;-3.364;2024-03-02T13:59:36;3.33;;;0.60;;
79526;SDS011;68974;47.754;-3.364;2024-03-02T14:02:02;4.90;;;1.05;;
79526;SDS011;68974;47.754;-3.364;2024-03-02T14:04:33;2.13;;;0.40;;
79526;SDS011;68974;47.754;-3.364;2024-03-02T14:06:59;1.33;;;0.55;;
79526;SDS011;68974;47.754;-3.364;2024-03-02T14:09:25;1.75;;;0.65;;
79526;SDS011;68974;47.754;-3.364;2024-03-02T14:11:52;1.52;;;0.55;;
79526;SDS011;68974;47.754;-3.364;2024-03-02T14:14:17;1.17;;;0.70;;
79526;SDS011;68974;47.754;-3.364;2024-03-02T14:16:43;3.97;;;0.60;;
79526;SDS011;68974;47.754;-3.364;2024-03-02T14:19:10;1.38;;;0.60;;
79526;SDS011;68974;47.754;-3.364;2024-03-02T14:21:37;1.08;;;0.50;;
79526;SDS011;68974;47.754;-3.364;2024-03-02T14:24:05;3.88;;;0.70;;
79526;SDS011;68974;47.754;-3.364;2024-03-02T14:26:34;2.55;;;0.80;;
79526;SDS011;68974;47.754;-3.364;2024-03-02T14:29:00;4.60;;;0.80;;
79526;SDS011;68974;47.754;-3.364;2024-03-02T14:31:28;1.88;;;0.70;;
79526;SDS011;68974;47.754;-3.364;2024-03-02T14:33:54;2.70;;;0.43;;
79526;SDS011;68974;47.754;-3.364;2024-03-02T14:36:20;4.93;;;0.80;;
79526;SDS011;68974;47.754;-3.364;2024-03-02T14:38:45;2.47;;;0.65;;
79526;SDS011;68974;47.754;-3.364;2024-03-02T14:41:11;2.85;;;0.50;;
79526;SDS011;68974;47.754;-3.364;2024-03-02T14:43:37;3.88;;;1.15;;
79526;SDS011;68974;47.754;-3.364;2024-03-02T14:46:03;2.58;;;0.70;;
79526;SDS011;68974;47.754;-3.364;2024-03-02T14:48:29;2.10;;;0.45;;
79526;SDS011;68974;47.754;-3.364;2024-03-02T14:50:55;2.97;;;0.60;;